createdAt,value
2023-04-28T00:01:45.891Z,6.55
2023-04-28T00:04:13.360Z,5.90
2023-04-28T00:06:41.275Z,5.65
2023-04-28T00:09:12.103Z,6.10
2023-04-28T00:11:39.207Z,4.95
2023-04-28T00:14:06.581Z,5.55
2023-04-28T00:16:33.613Z,5.22
2023-04-28T00:19:00.730Z,5.65
2023-04-28T00:21:28.910Z,5.25
2023-04-28T00:23:56.366Z,5.20
2023-04-28T00:26:23.544Z,5.20
2023-04-28T00:28:50.864Z,5.75
2023-04-28T00:31:17.996Z,5.82
2023-04-28T00:33:45.470Z,5.82
2023-04-28T00:36:12.623Z,5.90
2023-04-28T00:38:39.753Z,5.75
2023-04-28T00:41:06.790Z,6.07
2023-04-28T00:43:45.635Z,5.82
2023-04-28T00:46:21.528Z,5.32
2023-04-28T00:48:49.465Z,5.47
2023-04-28T00:51:17.586Z,5.80
2023-04-28T00:53:45.667Z,5.35
2023-04-28T00:56:13.117Z,5.72
2023-04-28T00:58:40.552Z,4.93
2023-04-28T01:01:09.302Z,5.53
2023-04-28T01:03:38.977Z,5.30
2023-04-28T01:06:07.553Z,5.28
2023-04-28T01:08:36.825Z,5.03
2023-04-28T01:11:07.343Z,5.13
2023-04-28T01:13:54.776Z,6.15
2023-04-28T01:16:22.005Z,5.68
2023-04-28T01:18:49.181Z,5.63
2023-04-28T01:21:30.513Z,6.00
2023-04-28T01:23:58.854Z,5.60
2023-04-28T01:26:26.220Z,6.03
2023-04-28T01:28:53.779Z,5.38
2023-04-28T01:31:21.065Z,5.22
2023-04-28T01:33:48.184Z,5.50
2023-04-28T01:36:16.953Z,5.22
2023-04-28T01:38:44.264Z,5.32
2023-04-28T01:41:13.373Z,5.95
2023-04-28T01:43:40.424Z,5.38
2023-04-28T01:46:07.773Z,5.03
2023-04-28T01:48:34.933Z,5.25
2023-04-28T01:51:02.328Z,5.45
2023-04-28T01:53:30.147Z,5.30
2023-04-28T01:55:58.786Z,4.88
2023-04-28T01:58:26.537Z,5.32
2023-04-28T02:00:53.823Z,4.68
2023-04-28T02:03:22.500Z,5.40
2023-04-28T02:05:50.394Z,5.95
2023-04-28T02:08:17.763Z,4.93
2023-04-28T02:10:45.649Z,5.18
2023-04-28T02:13:12.694Z,5.00
2023-04-28T02:15:43.711Z,4.63
2023-04-28T02:18:11.285Z,4.95
2023-04-28T02:20:41.055Z,5.13
2023-04-28T02:23:09.152Z,5.15
2023-04-28T02:25:36.208Z,5.70
2023-04-28T02:28:04.265Z,5.32
2023-04-28T02:30:34.809Z,4.97
2023-04-28T02:33:01.985Z,5.65
2023-04-28T02:35:29.027Z,5.45
2023-04-28T02:37:56.216Z,5.53
2023-04-28T02:40:23.320Z,5.50
2023-04-28T02:42:50.715Z,5.45
2023-04-28T02:45:17.865Z,5.38
2023-04-28T02:47:44.976Z,5.65
2023-04-28T02:50:12.105Z,5.43
2023-04-28T02:52:39.227Z,5.40
2023-04-28T02:55:06.858Z,5.57
2023-04-28T02:57:34.002Z,5.13
2023-04-28T03:00:01.213Z,4.90
2023-04-28T03:02:34.068Z,5.10
2023-04-28T03:05:01.306Z,5.15
2023-04-28T03:07:28.469Z,5.68
2023-04-28T03:09:55.617Z,5.35
2023-04-28T03:12:22.753Z,6.28
2023-04-28T03:14:49.819Z,5.57
2023-04-28T03:17:16.882Z,5.72
2023-04-28T03:19:44.040Z,5.70
2023-04-28T03:22:11.338Z,5.90
2023-04-28T03:24:38.429Z,6.63
2023-04-28T03:27:05.993Z,6.38
2023-04-28T03:29:33.228Z,6.53
2023-04-28T03:32:01.489Z,7.22
2023-04-28T03:34:28.793Z,7.78
2023-04-28T03:36:56.200Z,8.48
2023-04-28T03:39:28.246Z,8.68
2023-04-28T03:41:55.529Z,8.20
2023-04-28T03:44:37.834Z,8.23
2023-04-28T03:47:06.759Z,8.35
2023-04-28T03:49:33.943Z,8.70
2023-04-28T03:52:01.005Z,10.27
2023-04-28T03:54:28.991Z,9.52
2023-04-28T03:56:58.168Z,9.38
2023-04-28T03:59:25.274Z,9.25
2023-04-28T04:01:52.311Z,9.75
2023-04-28T04:04:19.625Z,9.00
2023-04-28T04:06:47.299Z,8.73
2023-04-28T04:09:14.509Z,8.32
2023-04-28T04:11:41.685Z,8.45
2023-04-28T04:14:09.213Z,8.57
2023-04-28T04:16:37.322Z,8.32
2023-04-28T04:19:05.510Z,7.63
2023-04-28T04:21:42.818Z,7.60
2023-04-28T04:24:09.956Z,7.78
2023-04-28T04:26:38.058Z,7.78
2023-04-28T04:29:19.423Z,7.20
2023-04-28T04:31:46.621Z,7.13
2023-04-28T04:34:14.069Z,8.05
2023-04-28T04:36:41.740Z,7.90
2023-04-28T04:39:09.797Z,8.30
2023-04-28T04:41:36.954Z,7.40
2023-04-28T04:44:23.568Z,8.02
2023-04-28T04:46:53.300Z,8.37
2023-04-28T04:49:21.264Z,7.85
2023-04-28T04:51:48.374Z,7.82
2023-04-28T04:54:15.640Z,7.93
2023-04-28T04:56:43.857Z,7.38
2023-04-28T04:59:12.984Z,7.53
2023-04-28T05:01:48.617Z,7.28
2023-04-28T05:04:15.968Z,7.38
2023-04-28T05:06:43.433Z,7.35
2023-04-28T05:09:11.329Z,7.43
2023-04-28T05:11:38.960Z,6.68
2023-04-28T05:14:06.002Z,7.30
2023-04-28T05:16:33.695Z,6.13
2023-04-28T05:19:10.998Z,6.72
2023-04-28T05:21:38.045Z,6.03
2023-04-28T05:24:05.794Z,6.00
2023-04-28T05:26:32.883Z,6.15
2023-04-28T05:29:06.395Z,5.70
2023-04-28T05:31:33.462Z,5.78
2023-04-28T05:34:00.638Z,5.15
2023-04-28T05:36:28.176Z,4.95
2023-04-28T05:38:55.426Z,5.22
2023-04-28T05:41:22.831Z,5.00
2023-04-28T05:43:51.515Z,4.43
2023-04-28T05:46:30.067Z,4.55
2023-04-28T05:51:29.419Z,4.13
2023-04-28T05:53:56.885Z,4.45
2023-04-28T05:56:24.733Z,4.47
2023-04-28T05:58:52.243Z,4.40
2023-04-28T06:01:19.368Z,3.92
2023-04-28T06:03:47.168Z,3.90
2023-04-28T06:06:14.890Z,3.42
2023-04-28T06:08:43.151Z,3.40
2023-04-28T06:11:10.227Z,3.05
2023-04-28T06:13:37.355Z,3.10
2023-04-28T06:16:04.849Z,2.70
2023-04-28T06:18:34.903Z,3.03
2023-04-28T06:21:03.235Z,3.08
2023-04-28T06:23:30.948Z,3.30
2023-04-28T06:25:58.668Z,2.55
2023-04-28T06:28:26.189Z,3.10
2023-04-28T06:30:53.657Z,2.55
2023-04-28T06:33:21.040Z,3.17
2023-04-28T06:35:48.129Z,3.28
2023-04-28T06:38:16.061Z,2.85
2023-04-28T06:40:43.207Z,3.47
2023-04-28T06:43:10.336Z,2.88
2023-04-28T06:45:46.791Z,3.20
2023-04-28T06:48:14.017Z,2.97
2023-04-28T06:50:43.710Z,3.30
2023-04-28T06:53:11.600Z,3.35
2023-04-28T06:55:38.785Z,3.00
2023-04-28T06:58:05.861Z,2.47
2023-04-28T07:00:35.257Z,2.70
2023-04-28T07:03:02.532Z,2.00
2023-04-28T07:05:29.828Z,2.25
2023-04-28T07:07:57.162Z,2.17
2023-04-28T07:10:24.286Z,2.08
2023-04-28T07:12:54.491Z,1.45
2023-04-28T07:15:21.583Z,1.80
2023-04-28T07:17:48.840Z,1.50
2023-04-28T07:20:16.094Z,1.40
2023-04-28T07:22:43.264Z,1.65
2023-04-28T07:25:10.645Z,2.22
2023-04-28T07:27:37.816Z,2.30
2023-04-28T07:30:18.528Z,2.65
2023-04-28T07:32:52.856Z,2.20
2023-04-28T07:35:20.002Z,2.60
2023-04-28T07:37:47.470Z,2.72
2023-04-28T07:40:14.667Z,2.40
2023-04-28T07:42:41.830Z,2.28
2023-04-28T07:45:09.708Z,2.40
2023-04-28T07:47:37.531Z,2.30
2023-04-28T07:50:06.520Z,2.50
2023-04-28T07:52:34.244Z,2.60
2023-04-28T07:55:02.581Z,2.35
2023-04-28T07:57:30.498Z,1.95
2023-04-28T07:59:57.655Z,2.60
2023-04-28T08:02:26.410Z,1.90
2023-04-28T08:04:53.886Z,2.28
2023-04-28T08:07:21.349Z,2.25
2023-04-28T08:09:48.525Z,2.50
2023-04-28T08:12:15.861Z,2.40
2023-04-28T08:14:42.924Z,2.35
2023-04-28T08:17:10.164Z,1.90
2023-04-28T08:19:37.344Z,1.67
2023-04-28T08:22:07.351Z,2.03
2023-04-28T08:24:34.773Z,1.88
2023-04-28T08:27:05.807Z,1.88
2023-04-28T08:29:33.259Z,1.77
2023-04-28T08:32:02.025Z,1.33
2023-04-28T08:34:29.509Z,1.00
2023-04-28T08:36:56.642Z,1.10
2023-04-28T08:39:23.902Z,1.70
2023-04-28T08:41:51.704Z,1.20
2023-04-28T08:44:19.450Z,1.52
2023-04-28T08:46:49.921Z,1.90
2023-04-28T08:51:50.149Z,1.40
2023-04-28T08:54:26.618Z,1.45
2023-04-28T08:56:56.239Z,1.60
2023-04-28T08:59:24.139Z,1.70
2023-04-28T09:01:51.494Z,1.88
2023-04-28T09:04:19.575Z,1.80
2023-04-28T09:06:47.289Z,2.45
2023-04-28T09:09:25.746Z,1.77
2023-04-28T09:11:55.603Z,1.20
2023-04-28T09:14:24.166Z,1.50
2023-04-28T09:16:51.983Z,1.50
2023-04-28T09:19:19.482Z,1.67
2023-04-28T09:21:48.867Z,1.80
2023-04-28T09:24:38.400Z,1.60
2023-04-28T09:27:07.832Z,1.55
2023-04-28T09:29:34.912Z,1.80
2023-04-28T09:32:28.147Z,1.67
2023-04-28T09:34:59.877Z,1.80
2023-04-28T09:37:30.905Z,1.90
2023-04-28T09:40:04.413Z,1.90
2023-04-28T09:42:42.608Z,1.92
2023-04-28T09:45:16.442Z,2.08
2023-04-28T09:47:49.148Z,2.08
2023-04-28T09:50:18.436Z,2.40
2023-04-28T09:52:57.362Z,2.07
2023-04-28T09:55:25.230Z,1.90
2023-04-28T09:57:55.971Z,2.72
2023-04-28T10:00:23.642Z,2.60
2023-04-28T10:02:51.837Z,2.35
2023-04-28T10:05:20.038Z,3.00
2023-04-28T10:07:47.437Z,2.50
2023-04-28T10:10:15.116Z,2.95
2023-04-28T10:12:44.224Z,3.30
2023-04-28T10:15:13.186Z,3.33
2023-04-28T10:17:40.781Z,3.05
2023-04-28T10:20:08.990Z,3.03
2023-04-28T10:22:51.108Z,2.70
2023-04-28T10:25:34.407Z,3.53
2023-04-28T10:28:06.213Z,2.60
2023-04-28T10:30:34.158Z,3.40
2023-04-28T10:33:13.764Z,3.33
2023-04-28T10:35:48.277Z,3.10
2023-04-28T10:38:17.275Z,3.00
2023-04-28T10:40:54.554Z,3.53
2023-04-28T10:43:27.797Z,5.07
2023-04-28T10:45:57.215Z,3.80
2023-04-28T10:48:34.503Z,4.72
2023-04-28T10:51:04.720Z,9.43
2023-04-28T10:53:47.491Z,4.88
2023-04-28T10:56:21.644Z,4.80
2023-04-28T10:58:50.972Z,3.78
2023-04-28T11:01:29.775Z,3.90
2023-04-28T11:04:11.049Z,4.22
2023-04-28T11:06:44.083Z,4.60
2023-04-28T11:09:17.703Z,4.55
2023-04-28T11:12:00.030Z,3.83
2023-04-28T11:14:32.755Z,4.30
2023-04-28T11:17:03.211Z,4.18
2023-04-28T11:19:35.925Z,4.35
2023-04-28T11:22:11.691Z,4.50
2023-04-28T11:24:38.836Z,4.47
2023-04-28T11:27:05.992Z,3.72
2023-04-28T11:29:43.933Z,4.47
2023-04-28T11:32:11.381Z,4.35
2023-04-28T11:34:38.624Z,5.20
2023-04-28T11:37:09.443Z,4.68
2023-04-28T11:39:37.410Z,4.75
2023-04-28T11:42:11.322Z,4.55
2023-04-28T11:44:38.742Z,4.65
2023-04-28T11:47:07.230Z,5.00
2023-04-28T11:49:44.556Z,4.95
2023-04-28T11:52:12.195Z,4.68
2023-04-28T11:54:39.915Z,5.13
2023-04-28T11:57:07.382Z,4.60
2023-04-28T11:59:35.906Z,4.57
2023-04-28T12:02:05.925Z,4.47
2023-04-28T12:04:44.263Z,5.05
2023-04-28T12:07:19.736Z,5.28
2023-04-28T12:10:06.782Z,4.93
2023-04-28T12:12:49.196Z,4.90
2023-04-28T12:15:20.739Z,4.57
2023-04-28T12:17:49.314Z,4.60
2023-04-28T12:20:36.782Z,4.78
2023-04-28T12:23:04.428Z,4.82
2023-04-28T12:25:31.738Z,4.63
2023-04-28T12:28:07.846Z,4.63
2023-04-28T12:30:39.089Z,4.88
2023-04-28T12:33:06.524Z,4.95
2023-04-28T12:35:33.770Z,5.30
2023-04-28T12:38:01.549Z,5.18
2023-04-28T12:40:28.684Z,4.75
2023-04-28T12:42:55.753Z,4.88
2023-04-28T12:45:22.883Z,4.32
2023-04-28T12:47:50.093Z,4.32
2023-04-28T12:50:17.190Z,4.93
2023-04-28T12:52:44.337Z,4.82
2023-04-28T12:55:11.411Z,4.80
2023-04-28T12:57:39.821Z,5.20
2023-04-28T13:00:08.693Z,5.10
2023-04-28T13:02:36.062Z,4.70
2023-04-28T13:05:03.548Z,5.47
2023-04-28T13:07:31.043Z,5.18
2023-04-28T13:09:58.626Z,5.20
2023-04-28T13:12:25.850Z,4.95
2023-04-28T13:14:53.044Z,4.55
2023-04-28T13:17:20.182Z,5.55
2023-04-28T13:19:47.925Z,4.65
2023-04-28T13:22:16.252Z,4.90
2023-04-28T13:24:43.555Z,5.40
2023-04-28T13:27:10.891Z,5.95
2023-04-28T13:29:38.209Z,5.47
2023-04-28T13:32:06.054Z,5.38
2023-04-28T13:34:33.697Z,5.88
2023-04-28T13:37:01.119Z,5.47
2023-04-28T13:39:28.344Z,6.13
2023-04-28T13:41:55.507Z,5.45
2023-04-28T13:44:22.812Z,5.57
2023-04-28T13:46:50.099Z,6.22
2023-04-28T13:49:17.255Z,5.45
2023-04-28T13:51:45.851Z,5.78
2023-04-28T13:54:13.031Z,5.97
2023-04-28T13:56:40.268Z,5.63
2023-04-28T13:59:07.509Z,5.72
2023-04-28T14:01:34.684Z,5.70
2023-04-28T14:04:02.350Z,4.93
2023-04-28T14:06:29.591Z,5.57
2023-04-28T14:08:57.129Z,5.70
2023-04-28T14:11:24.218Z,5.90
2023-04-28T14:13:51.417Z,5.70
2023-04-28T14:16:18.829Z,5.47
2023-04-28T14:18:46.150Z,5.60
2023-04-28T14:21:13.409Z,5.43
2023-04-28T14:23:40.432Z,5.20
2023-04-28T14:26:07.706Z,5.35
2023-04-28T14:28:34.850Z,5.47
2023-04-28T14:31:07.496Z,4.97
2023-04-28T14:33:34.863Z,5.53
2023-04-28T14:36:05.333Z,5.68
2023-04-28T14:38:32.555Z,5.57
2023-04-28T14:40:59.673Z,5.90
2023-04-28T14:43:26.940Z,5.90
2023-04-28T14:45:54.670Z,5.57
2023-04-28T14:48:21.981Z,5.65
2023-04-28T14:50:49.296Z,5.30
2023-04-28T14:53:16.359Z,5.82
2023-04-28T14:55:43.731Z,5.97
2023-04-28T14:58:10.858Z,5.68
2023-04-28T15:00:38.196Z,5.32
2023-04-28T15:03:05.485Z,5.93
2023-04-28T15:05:32.848Z,6.10
2023-04-28T15:08:00.014Z,5.40
2023-04-28T15:10:37.143Z,5.30
2023-04-28T15:13:04.821Z,5.75
2023-04-28T15:15:32.124Z,5.57
2023-04-28T15:18:01.161Z,5.82
2023-04-28T15:20:30.712Z,6.05
2023-04-28T15:22:57.913Z,6.18
2023-04-28T15:25:25.682Z,5.55
2023-04-28T15:27:52.715Z,5.43
2023-04-28T15:30:19.761Z,4.93
2023-04-28T15:32:46.843Z,5.40
2023-04-28T15:35:14.000Z,5.60
2023-04-28T15:37:44.178Z,5.80
2023-04-28T15:40:13.239Z,6.32
2023-04-28T15:42:42.851Z,5.93
2023-04-28T15:45:11.420Z,5.60
2023-04-28T15:47:39.516Z,5.60
2023-04-28T15:50:09.127Z,5.13
2023-04-28T15:52:38.981Z,6.00
2023-04-28T15:55:07.152Z,5.78
2023-04-28T15:57:34.772Z,6.20
2023-04-28T16:00:01.836Z,6.00
2023-04-28T16:02:35.457Z,5.80
2023-04-28T16:05:05.681Z,6.55
2023-04-28T16:07:38.200Z,6.45
2023-04-28T16:10:08.261Z,6.43
2023-04-28T16:15:03.543Z,5.47
2023-04-28T16:17:31.007Z,5.75
2023-04-28T16:19:58.354Z,5.45
2023-04-28T16:22:25.907Z,5.63
2023-04-28T16:24:53.932Z,5.50
2023-04-28T16:27:21.083Z,5.57
2023-04-28T16:29:48.111Z,5.38
2023-04-28T16:32:15.439Z,5.32
2023-04-28T16:34:42.576Z,5.60
2023-04-28T16:37:11.017Z,5.80
2023-04-28T16:39:38.548Z,5.60
2023-04-28T16:42:06.225Z,5.63
2023-04-28T16:44:33.355Z,5.75
2023-04-28T16:47:01.142Z,5.53
2023-04-28T16:49:28.240Z,5.35
2023-04-28T16:51:59.442Z,5.57
2023-04-28T16:54:28.403Z,5.32
2023-04-28T16:56:56.092Z,5.70
2023-04-28T16:59:23.467Z,5.80
2023-04-28T17:01:50.810Z,6.30
2023-04-28T17:04:18.206Z,6.25
2023-04-28T17:06:45.632Z,6.00
2023-04-28T17:09:13.075Z,6.40
2023-04-28T17:11:40.173Z,6.15
2023-04-28T17:14:07.365Z,5.95
2023-04-28T17:16:34.881Z,6.43
2023-04-28T17:19:02.679Z,6.20
2023-04-28T17:21:31.530Z,6.47
2023-04-28T17:23:59.682Z,6.55
2023-04-28T17:26:28.330Z,6.93
2023-04-28T17:28:59.069Z,6.53
2023-04-28T17:31:27.665Z,7.03
2023-04-28T17:33:56.658Z,6.35
2023-04-28T17:36:25.957Z,6.40
2023-04-28T17:38:53.742Z,6.63
2023-04-28T17:41:21.455Z,6.75
2023-04-28T17:43:49.146Z,6.30
2023-04-28T17:46:16.290Z,6.80
2023-04-28T17:48:43.639Z,7.10
2023-04-28T17:51:10.708Z,8.07
2023-04-28T17:53:39.494Z,8.75
2023-04-28T17:56:06.863Z,8.68
2023-04-28T17:58:34.101Z,10.35
2023-04-28T18:01:08.465Z,11.93
2023-04-28T18:03:37.924Z,12.48
2023-04-28T18:06:07.983Z,13.17
2023-04-28T18:08:37.078Z,10.57
2023-04-28T18:11:05.087Z,9.05
2023-04-28T18:13:33.653Z,12.60
2023-04-28T18:16:01.511Z,11.32
2023-04-28T18:18:30.208Z,10.88
2023-04-28T18:20:59.844Z,12.05
2023-04-28T18:23:27.307Z,11.63
2023-04-28T18:25:54.451Z,11.02
2023-04-28T18:28:21.670Z,10.25
2023-04-28T18:30:48.968Z,9.05
2023-04-28T18:33:20.002Z,9.10
2023-04-28T18:35:48.534Z,9.25
2023-04-28T18:38:15.662Z,9.77
2023-04-28T18:40:42.786Z,10.20
2023-04-28T18:43:13.412Z,11.48
2023-04-28T18:45:41.421Z,11.10
2023-04-28T18:48:10.916Z,11.35
2023-04-28T18:50:38.594Z,10.68
2023-04-28T18:53:08.681Z,9.55
2023-04-28T18:55:35.907Z,9.90
2023-04-28T18:58:04.200Z,10.10
2023-04-28T19:00:33.131Z,10.13
2023-04-28T19:03:00.935Z,10.48
2023-04-28T19:05:28.093Z,10.98
2023-04-28T19:07:55.322Z,11.43
2023-04-28T19:10:22.399Z,10.65
2023-04-28T19:12:49.553Z,11.02
2023-04-28T19:15:17.421Z,10.93
2023-04-28T19:17:44.689Z,11.00
2023-04-28T19:20:13.634Z,10.18
2023-04-28T19:22:44.550Z,11.18
2023-04-28T19:25:12.192Z,10.90
2023-04-28T19:27:41.230Z,12.50
2023-04-28T19:30:10.533Z,11.38
2023-04-28T19:32:38.092Z,10.25
2023-04-28T19:35:05.913Z,12.10
2023-04-28T19:37:34.376Z,11.02
2023-04-28T19:40:03.191Z,11.68
2023-04-28T19:42:30.849Z,11.63
2023-04-28T19:44:59.175Z,11.50
2023-04-28T19:47:27.875Z,11.10
2023-04-28T19:49:55.079Z,11.57
2023-04-28T19:52:22.970Z,12.30
2023-04-28T19:54:50.580Z,11.93
2023-04-28T19:57:18.997Z,12.60
2023-04-28T19:59:47.658Z,12.88
2023-04-28T20:02:19.256Z,12.07
2023-04-28T20:04:47.037Z,12.40
2023-04-28T20:07:14.482Z,12.70
2023-04-28T20:09:41.593Z,13.32
2023-04-28T20:12:09.404Z,13.85
2023-04-28T20:14:37.752Z,12.25
2023-04-28T20:17:06.140Z,13.25
2023-04-28T20:19:33.475Z,13.75
2023-04-28T20:22:04.877Z,13.32
2023-04-28T20:24:36.791Z,13.68
2023-04-28T20:27:04.453Z,12.43
2023-04-28T20:29:34.727Z,14.05
2023-04-28T20:32:02.768Z,13.15
2023-04-28T20:34:30.957Z,13.40
2023-04-28T20:37:08.376Z,12.85
2023-04-28T20:39:35.732Z,12.98
2023-04-28T20:42:03.133Z,12.70
2023-04-28T20:44:30.209Z,12.38
2023-04-28T20:46:57.559Z,13.45
2023-04-28T20:49:25.237Z,13.38
2023-04-28T20:51:52.782Z,12.68
2023-04-28T20:54:19.849Z,13.05
2023-04-28T20:56:46.921Z,12.77
2023-04-28T20:59:13.998Z,13.93
2023-04-28T21:01:41.313Z,12.82
2023-04-28T21:04:08.878Z,12.40
2023-04-28T21:06:36.735Z,13.50
2023-04-28T21:09:03.868Z,13.27
2023-04-28T21:11:31.118Z,13.48
2023-04-28T21:13:58.701Z,13.43
2023-04-28T21:16:25.866Z,13.02
2023-04-28T21:18:53.348Z,13.77
2023-04-28T21:21:20.416Z,13.00
2023-04-28T21:23:48.754Z,14.30
2023-04-28T21:26:15.882Z,14.10
2023-04-28T21:28:42.976Z,14.52
2023-04-28T21:31:10.220Z,13.35
2023-04-28T21:33:37.700Z,13.45
2023-04-28T21:36:09.332Z,14.57
2023-04-28T21:38:39.901Z,15.05
2023-04-28T21:41:12.531Z,14.40
2023-04-28T21:43:40.716Z,13.07
2023-04-28T21:46:07.792Z,13.70
2023-04-28T21:48:35.677Z,12.55
2023-04-28T21:51:02.752Z,12.98
2023-04-28T21:53:29.861Z,12.70
2023-04-28T21:55:57.181Z,13.93
2023-04-28T21:58:24.289Z,13.45
2023-04-28T22:00:51.656Z,12.13
2023-04-28T22:03:18.903Z,12.38
2023-04-28T22:05:46.237Z,12.18
2023-04-28T22:08:14.153Z,13.10
2023-04-28T22:10:41.528Z,12.80
2023-04-28T22:13:09.199Z,13.10
2023-04-28T22:15:36.368Z,12.75
2023-04-28T22:18:03.733Z,12.75
2023-04-28T22:20:30.762Z,13.52
2023-04-28T22:22:58.153Z,12.40
2023-04-28T22:25:25.439Z,12.40
2023-04-28T22:27:52.619Z,11.55
2023-04-28T22:30:19.950Z,12.10
2023-04-28T22:32:47.785Z,12.02
2023-04-28T22:35:16.748Z,12.23
2023-04-28T22:37:44.015Z,11.82
2023-04-28T22:40:11.709Z,11.60
2023-04-28T22:42:40.548Z,12.07
2023-04-28T22:45:09.694Z,12.18
2023-04-28T22:47:38.695Z,12.30
2023-04-28T22:50:08.239Z,12.35
2023-04-28T22:52:35.955Z,12.52
2023-04-28T22:55:03.348Z,12.18
2023-04-28T22:57:30.626Z,12.07
2023-04-28T22:59:57.654Z,12.40
2023-04-28T23:02:25.605Z,11.88
2023-04-28T23:04:52.900Z,12.30
2023-04-28T23:07:20.082Z,12.50
2023-04-28T23:09:47.256Z,11.73
2023-04-28T23:12:14.430Z,11.80
2023-04-28T23:14:41.518Z,12.60
2023-04-28T23:17:08.739Z,12.25
2023-04-28T23:19:39.358Z,12.77
2023-04-28T23:22:08.078Z,12.65
2023-04-28T23:24:37.469Z,12.98
2023-04-28T23:27:04.859Z,12.35
2023-04-28T23:29:32.818Z,12.88
2023-04-28T23:31:59.970Z,11.90
2023-04-28T23:34:27.261Z,12.80
2023-04-28T23:36:54.754Z,13.15
2023-04-28T23:39:21.870Z,11.90
2023-04-28T23:41:49.097Z,12.50
2023-04-28T23:44:17.327Z,12.13
2023-04-28T23:46:44.435Z,11.70
2023-04-28T23:49:11.522Z,12.75
2023-04-28T23:51:39.437Z,12.43
2023-04-28T23:54:06.588Z,13.05
2023-04-28T23:56:33.968Z,12.93
2023-04-28T23:59:01.323Z,11.77
